Time;durP1;ratioP1;P1;durP2;ratioP2;P2;SDS_P1;SDS_P2;PMS_P1;PMS_P2;Temp;Humidity;BMP_temperature;BMP_pressure;BME280_temperature;BME280_humidity;BME280_pressure;Samples;Min_cycle;Max_cycle;Signal;HPM_P1;HPM_P2
2021/12/26 00:00:34;;;;;;;5.60;4.83;;;;;;;-3.96;100.00;95656.25;5073036;28;20930;-73
2021/12/26 00:03:01;;;;;;;6.30;4.47;;;;;;;-4.01;100.00;95647.69;5073118;28;20892;-73
2021/12/26 00:05:28;;;;;;;4.70;3.50;;;;;;;-4.09;100.00;95643.00;5056449;28;20463;-73
2021/12/26 00:07:58;;;;;;;5.20;4.60;;;;;;;-4.12;100.00;95635.78;5056160;28;20463;-73
2021/12/26 00:10:25;;;;;;;7.90;4.80;;;;;;;-4.11;100.00;95632.16;5072965;28;20538;-73
2021/12/26 00:12:52;;;;;;;5.47;4.37;;;;;;;-3.88;100.00;95655.75;5073118;28;20506;-73
2021/12/26 00:15:20;;;;;;;6.90;4.53;;;;;;;-3.84;100.00;95653.47;5072876;28;20931;-73
2021/12/26 00:17:47;;;;;;;7.27;5.27;;;;;;;-4.00;100.00;95637.13;5072921;28;20459;-73
2021/12/26 00:20:15;;;;;;;7.30;4.67;;;;;;;-3.91;100.00;95655.50;5056237;28;20436;-73
2021/12/26 00:22:43;;;;;;;6.47;4.43;;;;;;;-3.88;100.00;95649.81;5072771;28;20454;-74
2021/12/26 00:25:11;;;;;;;7.80;4.90;;;;;;;-3.80;100.00;95651.94;5073020;28;20431;-74
2021/12/26 00:27:39;;;;;;;6.50;4.83;;;;;;;-4.14;100.00;95612.78;5056261;28;21021;-73
2021/12/26 00:30:11;;;;;;;6.73;4.23;;;;;;;-3.82;100.00;95659.16;5072578;28;20926;-74
2021/12/26 00:32:40;;;;;;;7.43;5.37;;;;;;;-3.88;100.00;95647.22;5072812;28;20424;-74
2021/12/26 00:35:08;;;;;;;9.73;6.43;;;;;;;-3.83;100.00;95647.28;5056164;28;20497;-74
2021/12/26 00:37:34;;;;;;;9.23;5.47;;;;;;;-3.94;100.00;95630.97;5072613;28;20885;-74
2021/12/26 00:40:02;;;;;;;5.90;4.97;;;;;;;-4.11;100.00;95648.44;5072678;28;20439;-73
2021/12/26 00:42:29;;;;;;;9.07;5.90;;;;;;;-4.19;100.00;95634.19;5072470;28;20527;-73
2021/12/26 00:44:56;;;;;;;9.40;6.57;;;;;;;-4.04;100.00;95641.22;5090886;28;20462;-73
2021/12/26 00:47:23;;;;;;;6.90;5.83;;;;;;;-3.97;100.00;95638.44;5090822;28;20572;-73
2021/12/26 00:49:49;;;;;;;8.50;6.00;;;;;;;-4.00;100.00;95644.09;5072413;28;20526;-73
2021/12/26 00:52:17;;;;;;;7.40;5.53;;;;;;;-4.05;100.00;95650.00;5072677;28;20827;-73
2021/12/26 00:54:44;;;;;;;5.77;4.70;;;;;;;-4.04;100.00;95651.56;5092617;28;20427;-74
2021/12/26 00:57:10;;;;;;;8.00;6.90;;;;;;;-4.03;100.00;95660.06;5076073;28;20955;-73
2021/12/26 00:59:37;;;;;;;7.53;5.67;;;;;;;-4.10;100.00;95646.63;5076276;28;20431;-73
2021/12/26 01:02:04;;;;;;;9.80;7.40;;;;;;;-4.14;100.00;95661.81;5076177;28;20451;-73
2021/12/26 01:04:31;;;;;;;7.57;6.27;;;;;;;-4.04;100.00;95666.25;5076055;28;20453;-73
2021/12/26 01:06:59;;;;;;;9.67;6.77;;;;;;;-4.07;100.00;95656.44;5076042;28;20512;-73
2021/12/26 01:09:28;;;;;;;12.47;6.40;;;;;;;-3.93;100.00;95657.53;5076017;28;20520;-73
2021/12/26 01:12:03;;;;;;;8.00;6.30;;;;;;;-4.09;100.00;95653.34;5075941;28;20438;-73
2021/12/26 01:14:34;;;;;;;11.77;7.50;;;;;;;-4.11;100.00;95640.69;5076121;28;20478;-73
2021/12/26 01:17:13;;;;;;;8.80;6.10;;;;;;;-4.13;100.00;95644.56;5075903;28;20497;-73
2021/12/26 01:20:08;;;;;;;9.73;6.10;;;;;;;-4.26;100.00;95628.47;5094013;28;20486;-73
2021/12/26 01:22:36;;;;;;;11.90;6.60;;;;;;;-4.11;100.00;95637.34;5075833;28;20459;-73
2021/12/26 01:25:07;;;;;;;12.33;7.20;;;;;;;-4.07;100.00;95653.88;5075775;28;20439;-73
2021/12/26 01:27:34;;;;;;;11.67;7.33;;;;;;;-4.11;100.00;95657.97;5059172;28;20546;-73
2021/12/26 01:30:04;;;;;;;10.63;7.10;;;;;;;-4.07;100.00;95635.78;5075718;28;20485;-73
2021/12/26 01:32:31;;;;;;;11.70;7.70;;;;;;;-3.87;100.00;95656.56;5059122;28;20440;-73
2021/12/26 01:35:00;;;;;;;11.03;6.83;;;;;;;-3.77;100.00;95658.38;5093758;28;20803;-73
2021/12/26 01:37:45;;;;;;;12.00;6.47;;;;;;;-3.88;100.00;95657.56;5093675;28;20533;-76
2021/12/26 01:40:27;;;;;;;10.37;6.63;;;;;;;-3.90;100.00;95662.19;5094137;28;20416;-73
2021/12/26 01:43:04;;;;;;;11.03;7.67;;;;;;;-3.77;100.00;95664.31;5075542;28;20435;-74
2021/12/26 01:45:42;;;;;;;14.17;7.30;;;;;;;-3.84;100.00;95668.19;5060213;28;20525;-73
2021/12/26 01:48:09;;;;;;;8.37;5.50;;;;;;;-3.93;100.00;95666.06;5075746;28;20524;-74
2021/12/26 01:50:49;;;;;;;10.70;7.30;;;;;;;-3.82;100.00;95672.06;5076729;28;20455;-73
2021/12/26 01:53:18;;;;;;;11.07;6.80;;;;;;;-4.00;100.00;95651.84;5077031;28;20427;-72
2021/12/26 01:55:46;;;;;;;13.97;8.40;;;;;;;-3.94;100.00;95674.84;5062819;28;20439;-74
2021/12/26 01:58:20;;;;;;;10.03;7.20;;;;;;;-3.67;100.00;95681.69;5081385;28;20463;-73
2021/12/26 02:00:53;;;;;;;12.17;8.50;;;;;;;-3.88;100.00;95667.88;5078576;28;20432;-73
2021/12/26 02:03:20;;;;;;;9.90;8.40;;;;;;;-3.98;100.00;95667.84;5075114;28;20968;-73
2021/12/26 02:05:47;;;;;;;10.40;7.70;;;;;;;-4.01;100.00;95663.16;5058193;28;20439;-73
2021/12/26 02:08:17;;;;;;;13.00;8.70;;;;;;;-3.94;100.00;95661.94;5058478;28;20463;-74
2021/12/26 02:10:46;;;;;;;10.90;8.67;;;;;;;-4.02;100.00;95648.72;5074783;28;20470;-74
2021/12/26 02:13:13;;;;;;;9.80;7.03;;;;;;;-3.80;100.00;95670.00;5058357;28;20439;-73
2021/12/26 02:15:41;;;;;;;10.23;8.60;;;;;;;-3.86;100.00;95652.94;5074823;28;20945;-73
2021/12/26 02:18:11;;;;;;;10.03;8.13;;;;;;;-3.72;100.00;95668.75;5074826;28;20455;-73
2021/12/26 02:21:07;;;;;;;13.13;8.57;;;;;;;-3.72;100.00;95668.75;5074897;28;20492;-74
2021/12/26 02:24:06;;;;;;;11.33;9.00;;;;;;;-3.84;100.00;95663.78;5074705;28;20439;-73
2021/12/26 02:29:18;;;;;;;10.20;7.03;;;;;;;-3.75;100.00;95667.44;5074624;28;20447;-73
2021/12/26 02:31:45;;;;;;;11.67;8.13;;;;;;;-3.74;100.00;95655.31;5058120;28;20435;-74
2021/12/26 02:34:11;;;;;;;12.97;8.63;;;;;;;-4.00;100.00;95647.47;5057960;28;20450;-74
2021/12/26 02:36:39;;;;;;;15.80;9.50;;;;;;;-3.78;100.00;95664.59;5074302;28;20439;-73
2021/12/26 02:39:06;;;;;;;12.50;9.83;;;;;;;-3.81;100.00;95663.28;5074308;28;20444;-74
2021/12/26 02:41:33;;;;;;;13.37;8.13;;;;;;;-3.87;100.00;95662.50;5074588;28;20505;-74
2021/12/26 02:44:00;;;;;;;12.67;9.13;;;;;;;-3.82;100.00;95655.81;5074349;28;21000;-73
2021/12/26 02:46:29;;;;;;;15.20;7.30;;;;;;;-3.77;100.00;95656.59;5074288;28;20451;-73
2021/12/26 02:48:56;;;;;;;14.13;9.67;;;;;;;-3.84;100.00;95660.44;5074214;28;20522;-74
2021/12/26 02:51:23;;;;;;;9.50;7.57;;;;;;;-3.83;100.00;95646.50;5074210;28;20463;-73
2021/12/26 02:53:50;;;;;;;11.23;8.30;;;;;;;-3.70;100.00;95656.38;5074171;28;20444;-73
2021/12/26 02:56:18;;;;;;;14.07;9.70;;;;;;;-3.94;100.00;95637.94;5073983;28;20442;-73
2021/12/26 02:58:45;;;;;;;12.60;8.97;;;;;;;-3.70;100.00;95648.63;5073734;28;20466;-74
2021/12/26 03:01:16;;;;;;;10.40;8.70;;;;;;;-3.82;100.00;95629.97;5073802;28;20443;-73
2021/12/26 03:03:43;;;;;;;12.37;8.27;;;;;;;-3.89;100.00;95638.72;5092120;28;20416;-73
2021/12/26 03:08:59;;;;;;;14.33;8.77;;;;;;;-3.70;100.00;95651.22;5073792;28;20435;-73
2021/12/26 03:11:26;;;;;;;11.10;7.83;;;;;;;-3.88;100.00;95648.00;5073682;28;20509;-73
2021/12/26 03:13:53;;;;;;;13.87;10.43;;;;;;;-3.67;100.00;95648.09;5073719;28;20443;-73
2021/12/26 03:16:20;;;;;;;12.70;8.77;;;;;;;-3.64;100.00;95648.38;5056730;28;20489;-73
2021/12/26 03:18:54;;;;;;;13.90;8.53;;;;;;;-3.64;100.00;95635.47;5073459;28;20469;-74
2021/12/26 03:21:21;;;;;;;13.20;8.37;;;;;;;-3.51;100.00;95651.53;5073683;28;20497;-73
2021/12/26 03:23:48;;;;;;;13.50;9.90;;;;;;;-3.80;100.00;95631.28;5073652;28;20447;-74
2021/12/26 03:26:14;;;;;;;18.53;10.73;;;;;;;-3.76;100.00;95629.72;5073494;28;20467;-73
2021/12/26 03:28:41;;;;;;;19.10;10.17;;;;;;;-3.81;100.00;95627.13;5056909;28;20992;-74
2021/12/26 03:31:08;;;;;;;15.03;9.97;;;;;;;-3.73;100.00;95641.38;5056922;28;20485;-73
2021/12/26 03:33:37;;;;;;;17.30;10.60;;;;;;;-3.73;100.00;95643.97;5073438;28;20454;-73
2021/12/26 03:36:04;;;;;;;16.90;10.97;;;;;;;-3.72;100.00;95653.25;5073378;28;20462;-73
2021/12/26 03:38:33;;;;;;;14.77;9.10;;;;;;;-3.74;100.00;95648.34;5056790;28;20456;-73
2021/12/26 03:41:09;;;;;;;15.53;9.77;;;;;;;-3.83;100.00;95633.59;5073417;28;20459;-73
2021/12/26 03:43:38;;;;;;;15.00;11.00;;;;;;;-3.72;100.00;95628.22;5073312;28;20450;-73
2021/12/26 03:46:05;;;;;;;16.43;8.50;;;;;;;-3.77;100.00;95637.72;5073271;28;20437;-73
2021/12/26 03:48:32;;;;;;;12.23;9.00;;;;;;;-3.67;100.00;95645.53;5073068;28;20474;-73
2021/12/26 03:50:59;;;;;;;17.33;9.57;;;;;;;-3.62;100.00;95646.31;5073022;28;21047;-73
2021/12/26 03:53:26;;;;;;;12.43;9.03;;;;;;;-3.76;100.00;95629.72;5073191;28;20440;-74
2021/12/26 03:55:54;;;;;;;13.23;7.90;;;;;;;-3.65;100.00;95646.81;5073210;28;20458;-73
2021/12/26 03:58:21;;;;;;;13.80;8.90;;;;;;;-3.63;100.00;95647.34;5073142;28;20558;-74
2021/12/26 04:00:50;;;;;;;11.23;8.57;;;;;;;-3.66;100.00;95642.69;5073047;28;20887;-73
2021/12/26 04:03:21;;;;;;;11.40;9.00;;;;;;;-3.54;100.00;95641.69;5056989;28;20449;-73
2021/12/26 04:05:57;;;;;;;10.27;8.40;;;;;;;-3.65;100.00;95636.50;5073142;28;20441;-73
2021/12/26 04:08:25;;;;;;;11.53;8.97;;;;;;;-3.70;100.00;95623.56;5072980;28;21040;-73
2021/12/26 04:10:52;;;;;;;12.57;11.20;;;;;;;-3.78;100.00;95623.28;5073051;28;20463;-73
2021/12/26 04:13:19;;;;;;;13.00;9.90;;;;;;;-3.66;100.00;95632.34;5091233;28;20474;-73
2021/12/26 04:15:46;;;;;;;14.20;10.80;;;;;;;-3.72;100.00;95638.53;5073066;28;20443;-73
2021/12/26 04:18:13;;;;;;;15.93;10.30;;;;;;;-3.52;100.00;95645.56;5072835;28;20460;-73
2021/12/26 04:20:40;;;;;;;12.57;8.40;;;;;;;-3.56;100.00;95644.53;5072907;28;20522;-73
2021/12/26 04:23:08;;;;;;;15.27;10.80;;;;;;;-3.75;100.00;95623.53;5072861;28;20443;-73
2021/12/26 04:25:35;;;;;;;15.40;9.57;;;;;;;-3.54;100.00;95655.38;5072902;28;20439;-73
2021/12/26 04:28:02;;;;;;;18.10;12.53;;;;;;;-3.49;100.00;95654.63;5091836;28;20455;-73
2021/12/26 04:30:28;;;;;;;13.03;9.53;;;;;;;-3.42;100.00;95655.19;5060140;28;20462;-73
2021/12/26 04:32:55;;;;;;;14.67;11.03;;;;;;;-3.53;100.00;95638.09;5076791;28;20439;-72
2021/12/26 04:35:22;;;;;;;12.33;9.20;;;;;;;-3.51;100.00;95644.53;5076812;28;20529;-73
2021/12/26 04:37:49;;;;;;;21.83;10.40;;;;;;;-3.48;100.00;95653.59;5076646;28;20540;-72
2021/12/26 04:40:16;;;;;;;18.40;11.20;;;;;;;-3.68;100.00;95634.41;5076767;28;20435;-71
2021/12/26 04:43:02;;;;;;;16.40;11.00;;;;;;;-3.46;100.00;95648.97;5094919;28;20415;-73
2021/12/26 04:45:48;;;;;;;16.10;10.87;;;;;;;-3.45;100.00;95646.13;5062476;28;20520;-73
2021/12/26 04:48:44;;;;;;;16.80;10.60;;;;;;;-3.44;100.00;95636.56;5094476;28;20467;-73
2021/12/26 04:51:13;;;;;;;19.10;10.77;;;;;;;-3.71;100.00;95626.41;5076205;28;20471;-73
2021/12/26 04:53:42;;;;;;;12.67;11.13;;;;;;;-3.53;100.00;95644.03;5059781;28;20472;-72
2021/12/26 04:56:10;;;;;;;16.37;9.67;;;;;;;-3.54;100.00;95629.56;5076380;28;20538;-73
2021/12/26 04:58:36;;;;;;;15.27;11.00;;;;;;;-3.37;100.00;95645.63;5076281;28;20474;-73
2021/12/26 05:01:04;;;;;;;16.97;11.40;;;;;;;-3.31;100.00;95651.59;5059696;28;20439;-73
2021/12/26 05:03:31;;;;;;;16.20;11.07;;;;;;;-3.29;100.00;95645.13;5076510;28;20521;-73
2021/12/26 05:05:58;;;;;;;19.47;11.20;;;;;;;-3.43;100.00;95631.16;5076226;28;20442;-72
2021/12/26 05:08:26;;;;;;;13.33;11.60;;;;;;;-3.45;100.00;95637.59;5076049;28;20486;-72
2021/12/26 05:10:53;;;;;;;15.57;10.60;;;;;;;-3.31;100.00;95656.75;5075966;28;20454;-72
2021/12/26 05:13:19;;;;;;;14.63;11.50;;;;;;;-3.16;100.00;95669.72;5059469;28;20481;-72
2021/12/26 05:15:46;;;;;;;13.63;8.80;;;;;;;-3.32;100.00;95661.16;5075984;28;20447;-70
2021/12/26 05:18:13;;;;;;;16.27;9.97;;;;;;;-3.29;100.00;95670.19;5059279;28;21105;-71
2021/12/26 05:20:44;;;;;;;15.60;10.83;;;;;;;-3.31;100.00;95667.09;5059674;28;20473;-71
2021/12/26 05:23:11;;;;;;;17.57;11.10;;;;;;;-3.37;100.00;95660.34;5075828;28;20442;-71
2021/12/26 05:25:38;;;;;;;21.70;10.50;;;;;;;-3.31;100.00;95661.94;5075720;28;20820;-71
2021/12/26 05:28:05;;;;;;;16.27;11.27;;;;;;;-3.21;100.00;95668.91;5075558;28;20467;-72
2021/12/26 05:30:33;;;;;;;17.83;10.80;;;;;;;-3.23;100.00;95647.72;5075668;28;20455;-72
2021/12/26 05:33:14;;;;;;;13.33;10.27;;;;;;;-3.22;100.00;95659.59;5075617;28;20964;-72
2021/12/26 05:35:42;;;;;;;21.80;11.80;;;;;;;-3.26;100.00;95667.09;5075615;28;20522;-71
2021/12/26 05:38:10;;;;;;;17.70;11.13;;;;;;;-3.20;100.00;95671.28;5075450;28;20456;-71
2021/12/26 05:40:40;;;;;;;19.63;11.10;;;;;;;-3.30;100.00;95661.66;5058720;28;20466;-72
2021/12/26 05:43:06;;;;;;;15.47;10.83;;;;;;;-3.19;100.00;95661.72;5058818;28;20441;-71
2021/12/26 05:45:33;;;;;;;12.33;9.67;;;;;;;-3.15;100.00;95663.50;5075430;28;21023;-71
2021/12/26 05:48:11;;;;;;;14.90;10.80;;;;;;;-3.16;100.00;95681.88;5075350;28;20467;-71
2021/12/26 05:50:38;;;;;;;11.83;10.00;;;;;;;-3.10;100.00;95676.44;5075161;28;20460;-71
2021/12/26 05:53:09;;;;;;;20.67;12.17;;;;;;;-3.08;100.00;95681.34;5059415;28;20439;-71
2021/12/26 05:55:36;;;;;;;12.53;9.20;;;;;;;-3.18;100.00;95669.19;5075216;28;20450;-71
2021/12/26 05:58:03;;;;;;;13.50;9.93;;;;;;;-3.01;100.00;95684.47;5075019;28;20465;-72
2021/12/26 06:00:31;;;;;;;14.00;9.97;;;;;;;-3.14;100.00;95693.50;5075349;28;20466;-71
2021/12/26 06:02:58;;;;;;;16.53;10.93;;;;;;;-3.10;100.00;95686.78;5058706;28;20522;-71
2021/12/26 06:05:25;;;;;;;14.67;9.17;;;;;;;-3.19;100.00;95666.88;5075353;28;20446;-71
2021/12/26 06:07:52;;;;;;;12.80;11.40;;;;;;;-3.30;100.00;95666.06;5058417;28;20562;-71
2021/12/26 06:10:19;;;;;;;15.03;11.00;;;;;;;-3.27;100.00;95673.31;5074960;28;20455;-72
2021/12/26 06:12:46;;;;;;;13.70;10.20;;;;;;;-3.22;100.00;95670.72;5074800;28;21009;-71
2021/12/26 06:15:13;;;;;;;18.23;10.57;;;;;;;-3.29;100.00;95663.22;5074873;28;20447;-71
2021/12/26 06:17:40;;;;;;;14.53;11.13;;;;;;;-3.49;100.00;95649.47;5074639;28;20466;-71
2021/12/26 06:20:25;;;;;;;18.60;12.60;;;;;;;-3.40;100.00;95651.31;5077792;28;20415;-71
2021/12/26 06:23:12;;;;;;;16.20;11.60;;;;;;;-3.23;100.00;95665.81;5077693;28;20414;-71
2021/12/26 06:25:57;;;;;;;13.30;10.33;;;;;;;-3.26;100.00;95667.09;5077660;28;20414;-72
2021/12/26 06:28:39;;;;;;;17.50;11.83;;;;;;;-3.42;100.00;95643.03;5060042;28;20467;-71
2021/12/26 06:31:24;;;;;;;17.87;13.60;;;;;;;-3.37;100.00;95658.53;5092869;28;20560;-71
2021/12/26 06:34:10;;;;;;;16.30;10.57;;;;;;;-3.39;100.00;95657.25;5092691;28;20419;-72
2021/12/26 06:36:56;;;;;;;14.40;11.00;;;;;;;-3.40;100.00;95669.38;5077523;28;20585;-71
2021/12/26 06:39:41;;;;;;;15.37;10.70;;;;;;;-3.40;100.00;95669.38;5092635;28;20942;-71
2021/12/26 06:42:29;;;;;;;16.40;11.37;;;;;;;-3.31;100.00;95678.22;5092707;28;20406;-71
2021/12/26 06:45:19;;;;;;;14.80;11.17;;;;;;;-3.35;100.00;95682.31;5068197;28;20443;-71
2021/12/26 06:48:22;;;;;;;16.93;11.10;;;;;;;-3.44;100.00;95681.25;5018079;28;20837;-71
2021/12/26 06:50:50;;;;;;;12.93;10.50;;;;;;;-3.37;100.00;95678.44;5049195;28;20458;-71
2021/12/26 06:53:17;;;;;;;15.77;11.07;;;;;;;-3.38;100.00;95684.63;5073587;28;20918;-71
2021/12/26 06:55:45;;;;;;;15.80;11.47;;;;;;;-3.30;100.00;95690.09;5073859;28;20474;-71
2021/12/26 06:58:14;;;;;;;15.07;10.57;;;;;;;-3.29;100.00;95689.06;5057342;28;20991;-71
2021/12/26 07:00:42;;;;;;;13.30;10.73;;;;;;;-3.37;100.00;95691.34;5057291;28;21256;-71
2021/12/26 07:03:10;;;;;;;16.67;12.33;;;;;;;-3.46;100.00;95667.81;5057485;28;20534;-71
2021/12/26 07:05:37;;;;;;;15.90;12.20;;;;;;;-3.37;100.00;95689.53;5057298;28;20432;-71
2021/12/26 07:08:08;;;;;;;18.80;12.80;;;;;;;-3.28;100.00;95695.00;5057682;28;20459;-71
2021/12/26 07:10:39;;;;;;;17.20;11.60;;;;;;;-3.41;100.00;95669.66;5073544;28;21225;-71
2021/12/26 07:13:06;;;;;;;13.50;10.70;;;;;;;-3.63;100.00;95669.81;5073661;28;20871;-72
2021/12/26 07:15:35;;;;;;;14.00;11.60;;;;;;;-3.50;100.00;95689.25;5057446;28;20863;-71
2021/12/26 07:18:03;;;;;;;14.10;11.27;;;;;;;-3.45;100.00;95684.88;5057256;28;20463;-72
2021/12/26 07:20:34;;;;;;;19.83;13.53;;;;;;;-3.52;100.00;95697.25;5073634;28;20497;-71
2021/12/26 07:23:19;;;;;;;22.43;12.40;;;;;;;-3.58;100.00;95699.03;5092064;28;20420;-71
2021/12/26 07:25:48;;;;;;;16.60;11.87;;;;;;;-3.53;100.00;95698.28;5057199;28;20921;-72
2021/12/26 07:28:17;;;;;;;17.00;11.50;;;;;;;-3.58;100.00;95690.50;5073410;28;20499;-72
2021/12/26 07:31:06;;;;;;;17.60;13.10;;;;;;;-3.46;100.00;95700.63;5059759;28;20781;-72
2021/12/26 07:33:33;;;;;;;18.37;11.77;;;;;;;-3.41;100.00;95703.22;5073321;28;20953;-72
2021/12/26 07:36:04;;;;;;;20.10;14.10;;;;;;;-3.47;100.00;95706.81;5073268;28;20436;-72
2021/12/26 07:38:38;;;;;;;29.60;21.33;;;;;;;-3.52;100.00;95702.41;5074098;28;20514;-72
2021/12/26 07:41:23;;;;;;;20.43;12.60;;;;;;;-3.62;100.00;95682.47;5081861;28;20448;-71
2021/12/26 07:43:51;;;;;;;18.40;12.13;;;;;;;-3.50;100.00;95708.09;5065848;28;20994;-71
2021/12/26 07:46:36;;;;;;;14.93;11.20;;;;;;;-3.42;100.00;95699.09;5098011;28;20419;-72
2021/12/26 07:49:12;;;;;;;18.10;11.40;;;;;;;-3.58;100.00;95706.78;5073578;28;20438;-72
2021/12/26 07:51:58;;;;;;;19.70;12.60;;;;;;;-3.39;100.00;95719.25;5091586;28;20589;-71
2021/12/26 07:54:45;;;;;;;15.60;12.23;;;;;;;-3.40;100.00;95725.44;5091779;28;20414;-71
2021/12/26 07:57:30;;;;;;;10.20;9.17;;;;;;;-3.45;100.00;95715.88;5076163;28;20532;-72
2021/12/26 08:00:18;;;;;;;16.10;11.23;;;;;;;-3.44;100.00;95727.78;5091514;28;20937;-72
2021/12/26 08:02:55;;;;;;;15.20;10.90;;;;;;;-3.31;100.00;95735.06;5074902;28;20431;-72
2021/12/26 08:05:40;;;;;;;15.33;10.00;;;;;;;-3.27;100.00;95732.75;5091551;28;20457;-74
2021/12/26 08:08:25;;;;;;;14.60;9.63;;;;;;;-3.27;100.00;95730.94;5059023;28;20486;-72
2021/12/26 08:10:52;;;;;;;15.73;9.87;;;;;;;-3.40;100.00;95740.94;5073132;28;20436;-72
2021/12/26 08:13:18;;;;;;;12.07;10.77;;;;;;;-3.53;100.00;95718.16;5073015;28;20473;-72
2021/12/26 08:15:45;;;;;;;12.03;8.70;;;;;;;-3.50;100.00;95730.56;5072941;28;20534;-72
2021/12/26 08:18:12;;;;;;;10.33;8.27;;;;;;;-3.44;100.00;95725.19;5091290;28;20459;-72
2021/12/26 08:20:39;;;;;;;13.13;10.20;;;;;;;-3.58;100.00;95708.59;5091236;28;20427;-71
2021/12/26 08:23:05;;;;;;;13.80;9.40;;;;;;;-3.54;100.00;95717.38;5072957;28;20455;-72
2021/12/26 08:25:32;;;;;;;15.27;10.17;;;;;;;-3.37;100.00;95725.72;5072860;28;20431;-72
2021/12/26 08:27:59;;;;;;;17.13;11.40;;;;;;;-3.39;100.00;95727.00;5072910;28;20990;-72
2021/12/26 08:30:27;;;;;;;11.43;9.30;;;;;;;-3.38;100.00;95739.66;5072704;28;20878;-72
2021/12/26 08:32:58;;;;;;;9.87;7.20;;;;;;;-3.54;100.00;95703.69;5072656;28;20513;-72
2021/12/26 08:35:25;;;;;;;12.40;8.60;;;;;;;-3.56;100.00;95716.88;5073042;28;20493;-72
2021/12/26 08:37:52;;;;;;;12.67;9.50;;;;;;;-3.31;100.00;95729.13;5072702;28;20463;-72
2021/12/26 08:40:18;;;;;;;12.03;8.27;;;;;;;-3.25;100.00;95740.25;5056424;28;20496;-71
2021/12/26 08:42:45;;;;;;;10.43;7.43;;;;;;;-3.18;100.00;95741.56;5090858;28;20461;-72
2021/12/26 08:45:12;;;;;;;10.67;8.70;;;;;;;-3.14;100.00;95745.19;5072965;28;21338;-71
2021/12/26 08:47:39;;;;;;;10.60;8.47;;;;;;;-3.27;100.00;95743.84;5091349;28;20443;-72
2021/12/26 08:50:09;;;;;;;14.00;9.80;;;;;;;-3.36;100.00;95719.53;5091622;28;21324;-71
2021/12/26 08:52:37;;;;;;;10.83;8.80;;;;;;;-3.03;100.00;95741.63;5073254;28;20536;-71
2021/12/26 08:55:05;;;;;;;11.50;8.40;;;;;;;-3.49;100.00;95726.94;5072843;28;20444;-72
2021/12/26 08:57:32;;;;;;;11.47;9.40;;;;;;;-3.21;100.00;95754.19;5091463;28;20447;-71
2021/12/26 09:00:00;;;;;;;14.30;8.93;;;;;;;-3.22;100.00;95753.44;5073130;28;20847;-71
2021/12/26 09:02:27;;;;;;;15.37;10.57;;;;;;;-3.23;100.00;95740.75;5090635;28;20478;-72
2021/12/26 09:04:53;;;;;;;14.00;9.13;;;;;;;-3.21;100.00;95739.47;5072807;28;20458;-71
2021/12/26 09:07:20;;;;;;;13.10;8.27;;;;;;;-3.04;100.00;95741.88;5072482;28;20921;-72
2021/12/26 09:09:48;;;;;;;10.40;8.47;;;;;;;-3.05;100.00;95748.06;5090850;28;20522;-71
2021/12/26 09:12:14;;;;;;;11.83;8.80;;;;;;;-3.06;100.00;95736.97;5072365;28;20494;-72
2021/12/26 09:14:44;;;;;;;8.73;7.40;;;;;;;-3.05;100.00;95755.84;5056349;28;20446;-72
2021/12/26 09:17:11;;;;;;;13.43;8.87;;;;;;;-3.15;100.00;95761.72;5076203;28;20492;-72
2021/12/26 09:19:37;;;;;;;13.00;7.50;;;;;;;-3.17;100.00;95756.03;5075892;28;20447;-72
2021/12/26 09:22:06;;;;;;;9.30;7.40;;;;;;;-3.30;100.00;95772.00;5075968;28;20431;-71
2021/12/26 09:24:34;;;;;;;10.57;8.00;;;;;;;-3.03;100.00;95764.09;5094173;28;20485;-72
2021/12/26 09:27:01;;;;;;;19.63;8.10;;;;;;;-3.10;100.00;95753.22;5093925;28;20867;-72
2021/12/26 09:29:27;;;;;;;9.77;6.20;;;;;;;-3.20;100.00;95745.44;5076009;28;20472;-72
2021/12/26 09:31:56;;;;;;;8.10;7.07;;;;;;;-3.19;100.00;95762.50;5075667;28;20491;-71
2021/12/26 09:34:24;;;;;;;17.10;13.17;;;;;;;-3.02;100.00;95756.09;5075842;28;20442;-71
2021/12/26 09:36:51;;;;;;;12.97;11.20;;;;;;;-3.06;100.00;95756.88;5059034;28;20459;-72
2021/12/26 09:39:18;;;;;;;15.37;10.80;;;;;;;-2.92;100.00;95764.91;5075894;28;20434;-72
2021/12/26 09:41:45;;;;;;;13.07;8.37;;;;;;;-2.84;100.00;95739.31;5075671;28;20496;-72
2021/12/26 09:44:16;;;;;;;12.07;8.60;;;;;;;-2.85;100.00;95716.31;5093852;28;20450;-72
2021/12/26 09:46:44;;;;;;;10.03;6.37;;;;;;;-3.11;100.00;95767.16;5093717;28;20782;-71
2021/12/26 09:49:10;;;;;;;11.40;9.13;;;;;;;-3.01;100.00;95760.22;5093723;28;20523;-72
2021/12/26 09:51:37;;;;;;;9.70;7.63;;;;;;;-2.93;100.00;95760.78;5076351;28;20501;-72
2021/12/26 09:54:05;;;;;;;11.07;8.20;;;;;;;-2.99;100.00;95752.22;5075327;28;20466;-72
2021/12/26 09:56:33;;;;;;;11.03;8.23;;;;;;;-3.06;100.00;95757.63;5058688;28;20459;-72
2021/12/26 09:59:03;;;;;;;9.00;6.80;;;;;;;-2.84;100.00;95761.81;5075424;28;20930;-72
2021/12/26 10:01:49;;;;;;;9.43;6.90;;;;;;;-2.87;100.00;95754.59;5093609;28;20443;-71
2021/12/26 10:04:37;;;;;;;15.20;7.77;;;;;;;-2.84;100.00;95756.66;5093935;28;20423;-69
2021/12/26 10:07:06;;;;;;;13.07;7.10;;;;;;;-2.75;100.00;95740.38;5075427;28;20491;-70
2021/12/26 10:09:39;;;;;;;13.73;7.83;;;;;;;-2.85;100.00;95752.50;5075550;28;20486;-71
2021/12/26 10:12:07;;;;;;;9.43;7.23;;;;;;;-3.05;100.00;95737.75;5075010;28;20463;-71
2021/12/26 10:14:37;;;;;;;11.07;7.93;;;;;;;-3.16;100.00;95730.97;5059118;28;20469;-69
2021/12/26 10:17:07;;;;;;;10.33;6.70;;;;;;;-3.00;100.00;95742.91;5075112;28;20467;-69
2021/12/26 10:19:40;;;;;;;9.90;6.87;;;;;;;-2.79;100.00;95752.28;5093404;28;20420;-69
2021/12/26 10:22:10;;;;;;;8.03;6.37;;;;;;;-2.45;100.00;95741.44;5058381;28;20861;-70
2021/12/26 10:24:46;;;;;;;9.10;6.67;;;;;;;-2.88;100.00;95724.59;5075002;28;20435;-70
2021/12/26 10:27:29;;;;;;;12.93;6.43;;;;;;;-2.85;100.00;95750.69;5074579;28;20486;-70
2021/12/26 10:29:58;;;;;;;8.50;7.30;;;;;;;-2.70;100.00;95734.44;5074824;28;20445;-70
2021/12/26 10:32:33;;;;;;;7.93;6.20;;;;;;;-2.46;100.00;95740.69;5075023;28;20467;-71
2021/12/26 10:35:06;;;;;;;18.00;10.77;;;;;;;-2.76;100.00;95733.66;5074555;28;20469;-70
2021/12/26 10:37:47;;;;;;;10.50;8.37;;;;;;;-3.13;100.00;95720.13;5058627;28;20463;-70
2021/12/26 10:40:26;;;;;;;9.23;6.00;;;;;;;-2.71;100.00;95740.66;5074610;28;20438;-70
2021/12/26 10:43:01;;;;;;;8.77;5.60;;;;;;;-2.89;100.00;95728.22;5074681;28;20427;-70
2021/12/26 10:45:31;;;;;;;9.50;6.43;;;;;;;-2.68;100.00;95745.31;5092734;28;20431;-70
2021/12/26 10:48:04;;;;;;;9.80;6.97;;;;;;;-3.13;100.00;95718.31;5074439;28;20469;-70
2021/12/26 10:50:35;;;;;;;12.23;7.07;;;;;;;-2.88;100.00;95738.28;5074510;28;21121;-70
2021/12/26 10:53:05;;;;;;;8.27;6.67;;;;;;;-2.83;100.00;95729.75;5074267;28;20462;-70
2021/12/26 10:55:37;;;;;;;9.67;6.73;;;;;;;-2.40;100.00;95729.31;5074273;28;20473;-70
2021/12/26 10:58:07;;;;;;;14.03;8.27;;;;;;;-2.04;100.00;95726.69;5074605;28;20986;-70
2021/12/26 11:00:43;;;;;;;11.63;7.90;;;;;;;-1.97;100.00;95716.09;5074231;28;20807;-70
2021/12/26 11:03:12;;;;;;;10.67;6.63;;;;;;;-1.97;100.00;95729.03;5074139;28;20478;-70
2021/12/26 11:05:43;;;;;;;8.83;6.77;;;;;;;-2.17;100.00;95722.03;5092402;28;20435;-70
2021/12/26 11:08:12;;;;;;;14.50;8.23;;;;;;;-2.00;100.00;95721.75;5057771;28;20483;-70
2021/12/26 11:10:45;;;;;;;7.93;6.63;;;;;;;-1.95;100.00;95725.13;5057411;28;20443;-70
2021/12/26 11:13:46;;;;;;;11.70;7.47;;;;;;;-2.77;100.00;95644.19;5074100;28;20516;-70
2021/12/26 11:16:15;;;;;;;10.83;7.00;;;;;;;-2.20;100.00;95712.22;5070917;28;20497;-70
2021/12/26 11:18:43;;;;;;;12.03;7.43;;;;;;;-2.22;100.00;95706.53;5073619;28;20463;-70
2021/12/26 11:21:13;;;;;;;7.83;5.10;;;;;;;-2.36;100.00;95697.72;5091899;28;20501;-70
2021/12/26 11:23:42;;;;;;;9.47;7.13;;;;;;;-2.24;100.00;95714.56;5073614;28;20441;-70
2021/12/26 11:26:18;;;;;;;8.83;5.90;;;;;;;-2.48;100.00;95696.19;5073820;28;20457;-70
2021/12/26 11:28:47;;;;;;;8.00;6.23;;;;;;;-2.66;100.00;95701.88;5091719;28;20515;-70
2021/12/26 11:31:23;;;;;;;7.70;6.30;;;;;;;-2.76;100.00;95704.44;5073453;28;20465;-70
2021/12/26 11:33:54;;;;;;;11.10;7.40;;;;;;;-2.65;100.00;95697.47;5057221;28;20454;-70
2021/12/26 11:36:22;;;;;;;9.07;6.67;;;;;;;-2.53;100.00;95716.09;5073361;28;20436;-70
2021/12/26 11:39:00;;;;;;;11.10;6.50;;;;;;;-2.61;100.00;95701.84;5073068;28;20572;-70